createdAt,value
2023-04-09T00:00:43.723Z,15.40
2023-04-09T00:03:10.851Z,15.40
2023-04-09T00:05:41.397Z,15.40
2023-04-09T00:08:08.195Z,15.40
2023-04-09T00:10:34.992Z,15.40
2023-04-09T00:13:01.664Z,15.40
2023-04-09T00:15:31.732Z,15.40
2023-04-09T00:17:59.725Z,15.40
2023-04-09T00:20:26.615Z,15.40
2023-04-09T00:22:54.068Z,15.40
2023-04-09T00:25:21.104Z,15.30
2023-04-09T00:27:47.791Z,15.30
2023-04-09T00:30:14.622Z,15.30
2023-04-09T00:32:41.469Z,15.30
2023-04-09T00:35:08.953Z,15.30
2023-04-09T00:37:35.755Z,15.30
2023-04-09T00:40:02.544Z,15.30
2023-04-09T00:42:33.592Z,15.30
2023-04-09T00:45:00.793Z,15.30
2023-04-09T00:47:29.469Z,15.30
2023-04-09T00:49:57.569Z,15.30
2023-04-09T00:52:24.752Z,15.30
2023-04-09T00:54:52.650Z,15.30
2023-04-09T00:57:19.755Z,15.30
2023-04-09T00:59:47.445Z,15.30
2023-04-09T01:02:14.157Z,15.30
2023-04-09T01:04:42.948Z,15.30
2023-04-09T01:07:24.668Z,15.20
2023-04-09T01:10:01.358Z,15.20
2023-04-09T01:12:51.959Z,15.20
2023-04-09T01:15:25.945Z,15.20
2023-04-09T01:18:04.774Z,15.20
2023-04-09T01:20:59.264Z,15.20
2023-04-09T01:23:57.939Z,15.20
2023-04-09T01:26:38.114Z,15.20
2023-04-09T01:29:06.923Z,15.20
2023-04-09T01:31:38.996Z,15.20
2023-04-09T01:34:08.696Z,15.20
2023-04-09T01:36:36.731Z,15.20
2023-04-09T01:39:04.929Z,15.20
2023-04-09T01:41:32.875Z,15.20
2023-04-09T01:44:01.897Z,15.20
2023-04-09T01:46:29.991Z,15.20
2023-04-09T01:48:57.389Z,15.20
2023-04-09T01:51:24.466Z,15.20
2023-04-09T01:53:51.506Z,15.10
2023-04-09T01:56:18.196Z,15.20
2023-04-09T01:58:44.901Z,15.20
2023-04-09T02:01:22.797Z,15.10
2023-04-09T02:03:54.744Z,15.20
2023-04-09T02:06:47.324Z,15.20
2023-04-09T02:09:18.252Z,15.20
2023-04-09T02:11:48.005Z,15.20
2023-04-09T02:14:16.225Z,15.10
2023-04-09T02:16:43.429Z,15.20
2023-04-09T02:19:10.443Z,15.10
2023-04-09T02:21:37.177Z,15.20
2023-04-09T02:24:03.944Z,15.10
2023-04-09T02:26:30.578Z,15.10
2023-04-09T02:28:57.223Z,15.10
2023-04-09T02:31:24.037Z,15.10
2023-04-09T02:33:51.550Z,15.10
2023-04-09T02:36:18.198Z,15.10
2023-04-09T02:38:44.851Z,15.10
2023-04-09T02:41:11.596Z,15.10
2023-04-09T02:43:38.248Z,15.10
2023-04-09T02:46:05.148Z,15.10
2023-04-09T02:48:32.619Z,15.10
2023-04-09T02:50:59.424Z,15.10
2023-04-09T02:53:26.316Z,15.10
2023-04-09T02:55:56.080Z,15.10
2023-04-09T02:58:22.808Z,15.10
2023-04-09T03:00:49.467Z,15.10
2023-04-09T03:03:18.373Z,15.10
2023-04-09T03:05:45.787Z,15.10
2023-04-09T03:08:12.436Z,15.10
2023-04-09T03:10:39.167Z,15.10
2023-04-09T03:13:05.877Z,15.10
2023-04-09T03:15:32.537Z,15.10
2023-04-09T03:17:59.227Z,15.10
2023-04-09T03:20:25.907Z,15.10
2023-04-09T03:22:52.550Z,15.10
2023-04-09T03:25:20.814Z,15.10
2023-04-09T03:27:47.631Z,15.10
2023-04-09T03:30:14.433Z,15.10
2023-04-09T03:32:41.204Z,15.10
2023-04-09T03:35:08.309Z,15.00
2023-04-09T03:37:35.080Z,15.00
2023-04-09T03:40:02.122Z,15.00
2023-04-09T03:42:28.967Z,15.00
2023-04-09T03:44:55.735Z,15.00
2023-04-09T03:47:22.426Z,15.00
2023-04-09T03:49:49.182Z,15.00
2023-04-09T03:52:15.893Z,15.00
2023-04-09T03:54:43.541Z,15.00
2023-04-09T03:57:10.495Z,15.00
2023-04-09T03:59:37.233Z,15.00
2023-04-09T04:02:03.938Z,15.00
2023-04-09T04:04:30.799Z,15.00
2023-04-09T04:06:57.727Z,15.00
2023-04-09T04:09:24.515Z,15.00
2023-04-09T04:11:51.342Z,15.00
2023-04-09T04:14:18.068Z,15.00
2023-04-09T04:16:44.825Z,15.00
2023-04-09T04:19:12.088Z,15.00
2023-04-09T04:21:38.719Z,14.90
2023-04-09T04:24:05.980Z,14.90
2023-04-09T04:26:32.724Z,14.90
2023-04-09T04:28:59.362Z,14.90
2023-04-09T04:31:26.136Z,14.90
2023-04-09T04:33:53.868Z,14.90
2023-04-09T04:36:20.700Z,14.90
2023-04-09T04:38:47.386Z,14.90
2023-04-09T04:41:14.087Z,14.90
2023-04-09T04:43:41.542Z,14.90
2023-04-09T04:46:08.448Z,14.90
2023-04-09T04:48:35.260Z,14.90
2023-04-09T04:51:02.466Z,14.90
2023-04-09T04:53:29.208Z,14.90
2023-04-09T04:55:55.928Z,14.90
2023-04-09T04:58:22.630Z,14.90
2023-04-09T05:00:49.447Z,14.90
2023-04-09T05:03:16.447Z,14.80
2023-04-09T05:05:43.552Z,14.80
2023-04-09T05:08:10.430Z,14.80
2023-04-09T05:10:37.238Z,14.80
2023-04-09T05:13:04.123Z,14.80
2023-04-09T05:15:31.003Z,14.90
2023-04-09T05:17:58.181Z,14.80
2023-04-09T05:20:24.996Z,14.80
2023-04-09T05:22:52.279Z,14.80
2023-04-09T05:25:19.247Z,14.80
2023-04-09T05:27:45.978Z,14.80
2023-04-09T05:30:13.392Z,14.80
2023-04-09T05:32:40.415Z,14.80
2023-04-09T05:35:07.534Z,14.80
2023-04-09T05:37:34.352Z,14.90
2023-04-09T05:40:01.154Z,14.90
2023-04-09T05:42:27.934Z,14.90
2023-04-09T05:44:54.725Z,14.90
2023-04-09T05:47:21.818Z,14.80
2023-04-09T05:49:48.468Z,14.80
2023-04-09T05:52:16.830Z,14.80
2023-04-09T05:54:43.495Z,14.80
2023-04-09T05:57:10.433Z,14.90
2023-04-09T05:59:37.105Z,14.90
2023-04-09T06:02:03.952Z,14.90
2023-04-09T06:04:30.653Z,14.90
2023-04-09T06:07:00.176Z,14.90
2023-04-09T06:09:30.221Z,14.90
2023-04-09T06:11:57.719Z,14.90
2023-04-09T06:14:24.532Z,14.90
2023-04-09T06:16:51.285Z,14.90
2023-04-09T06:19:19.062Z,14.90
2023-04-09T06:21:46.092Z,14.90
2023-04-09T06:24:12.781Z,14.90
2023-04-09T06:26:39.611Z,14.90
2023-04-09T06:29:06.392Z,14.90
2023-04-09T06:31:33.423Z,15.00
2023-04-09T06:34:01.277Z,14.90
2023-04-09T06:36:28.091Z,15.00
2023-04-09T06:38:54.848Z,15.00
2023-04-09T06:41:22.651Z,15.00
2023-04-09T06:43:49.947Z,15.00
2023-04-09T06:46:20.323Z,15.00
2023-04-09T06:48:47.437Z,15.00
2023-04-09T06:51:14.951Z,15.10
2023-04-09T06:53:42.021Z,15.10
2023-04-09T06:56:08.981Z,15.10
2023-04-09T06:58:35.648Z,15.10
2023-04-09T07:01:02.933Z,15.10
2023-04-09T07:03:30.304Z,15.10
2023-04-09T07:05:57.676Z,15.00
2023-04-09T07:08:24.588Z,15.10
2023-04-09T07:10:51.319Z,15.10
2023-04-09T07:13:18.060Z,15.10
2023-04-09T07:15:44.734Z,15.10
2023-04-09T07:18:11.488Z,15.10
2023-04-09T07:20:38.310Z,15.10
2023-04-09T07:23:05.241Z,15.10
2023-04-09T07:25:32.428Z,15.00
2023-04-09T07:27:59.275Z,15.00
2023-04-09T07:30:26.134Z,15.00
2023-04-09T07:32:52.956Z,15.00
2023-04-09T07:35:19.863Z,15.00
2023-04-09T07:37:46.649Z,15.10
2023-04-09T07:40:13.510Z,15.10
2023-04-09T07:42:40.667Z,15.10
2023-04-09T07:45:07.971Z,15.10
2023-04-09T07:47:34.697Z,15.20
2023-04-09T07:50:01.646Z,15.20
2023-04-09T07:52:28.378Z,15.30
2023-04-09T07:54:55.052Z,15.30
2023-04-09T07:57:22.142Z,15.30
2023-04-09T07:59:49.072Z,15.30
2023-04-09T08:02:16.050Z,15.40
2023-04-09T08:04:42.941Z,15.40
2023-04-09T08:07:09.854Z,15.50
2023-04-09T08:09:36.579Z,15.50
2023-04-09T08:12:03.463Z,15.50
2023-04-09T08:14:30.426Z,15.60
2023-04-09T08:16:57.179Z,15.70
2023-04-09T08:19:24.747Z,15.70
2023-04-09T08:21:52.509Z,15.70
2023-04-09T08:24:19.362Z,15.70
2023-04-09T08:26:46.599Z,15.80
2023-04-09T08:29:14.912Z,15.80
2023-04-09T08:31:42.055Z,15.90
2023-04-09T08:34:08.807Z,15.90
2023-04-09T08:36:35.858Z,15.90
2023-04-09T08:39:03.584Z,16.00
2023-04-09T08:41:30.825Z,16.10
2023-04-09T08:43:59.509Z,16.10
2023-04-09T08:46:27.703Z,16.10
2023-04-09T08:48:55.079Z,16.20
2023-04-09T08:51:24.395Z,16.20
2023-04-09T08:54:01.333Z,16.20
2023-04-09T08:56:30.778Z,16.30
2023-04-09T08:58:57.571Z,16.30
2023-04-09T09:01:31.849Z,16.30
2023-04-09T09:04:06.739Z,16.40
2023-04-09T09:06:35.659Z,16.40
2023-04-09T09:09:13.925Z,16.40
2023-04-09T09:11:41.566Z,16.50
2023-04-09T09:14:10.225Z,16.50
2023-04-09T09:16:44.680Z,16.50
2023-04-09T09:19:30.468Z,16.50
2023-04-09T09:22:02.231Z,16.60
2023-04-09T09:24:32.565Z,16.50
2023-04-09T09:26:59.352Z,16.60
2023-04-09T09:29:26.509Z,16.60
2023-04-09T09:31:54.997Z,16.60
2023-04-09T09:34:24.335Z,16.60
2023-04-09T09:36:51.251Z,16.60
2023-04-09T09:39:18.756Z,16.60
2023-04-09T09:41:46.507Z,16.60
2023-04-09T09:44:31.605Z,16.70
2023-04-09T09:46:59.124Z,16.70
2023-04-09T09:49:25.912Z,16.70
2023-04-09T09:51:56.753Z,16.70
2023-04-09T10:34:26.624Z,16.70
2023-04-09T10:36:56.573Z,17.20
2023-04-09T10:39:32.017Z,17.20
2023-04-09T10:42:02.267Z,17.20
2023-04-09T10:44:32.269Z,17.20
2023-04-09T10:46:59.330Z,17.30
2023-04-09T10:49:27.383Z,17.30
2023-04-09T10:52:01.754Z,17.40
2023-04-09T10:54:34.250Z,17.40
2023-04-09T10:57:21.489Z,17.40
2023-04-09T10:59:55.440Z,17.40
2023-04-09T11:02:40.449Z,17.40
2023-04-09T11:05:25.386Z,17.50
2023-04-09T11:08:06.310Z,17.50
2023-04-09T11:10:33.868Z,17.50
2023-04-09T11:13:01.354Z,17.50
2023-04-09T11:15:28.677Z,17.60
2023-04-09T11:17:56.180Z,17.60
2023-04-09T11:20:25.829Z,17.60
2023-04-09T11:22:54.411Z,17.70
2023-04-09T11:25:39.309Z,17.70
2023-04-09T11:28:08.118Z,17.70
2023-04-09T11:30:36.148Z,17.70
2023-04-09T11:33:03.066Z,17.80
2023-04-09T11:35:29.945Z,17.80
2023-04-09T11:37:56.640Z,17.80
2023-04-09T11:40:25.604Z,17.80
2023-04-09T11:42:54.140Z,17.80
2023-04-09T11:45:25.854Z,17.80
2023-04-09T11:47:53.592Z,17.90
2023-04-09T11:50:21.401Z,17.80
2023-04-09T11:52:50.016Z,17.80
2023-04-09T11:55:23.694Z,17.90
2023-04-09T11:57:53.810Z,17.90
2023-04-09T12:00:20.926Z,17.90
2023-04-09T12:02:49.370Z,17.90
2023-04-09T12:05:26.201Z,17.90
2023-04-09T12:07:58.278Z,17.90
2023-04-09T12:10:29.535Z,18.00
2023-04-09T12:13:02.363Z,17.90
2023-04-09T12:15:32.943Z,18.00
2023-04-09T12:18:00.403Z,18.00
2023-04-09T12:20:32.496Z,18.00
2023-04-09T12:23:01.252Z,18.00
2023-04-09T12:25:28.185Z,18.10
2023-04-09T12:27:55.947Z,18.10
2023-04-09T15:30:02.642Z,18.10
2023-04-09T15:32:30.956Z,20.50
2023-04-09T15:34:57.879Z,20.40
2023-04-09T15:37:24.564Z,20.40
2023-04-09T15:39:51.536Z,20.40
2023-04-09T15:42:22.476Z,20.40
2023-04-09T15:44:50.371Z,20.40
2023-04-09T15:47:17.599Z,20.40
2023-04-09T15:49:44.289Z,20.40
2023-04-09T15:52:11.165Z,20.40
2023-04-09T15:54:37.951Z,20.40
2023-04-09T15:57:04.796Z,20.40
2023-04-09T15:59:33.562Z,20.40
2023-04-09T16:02:00.396Z,20.40
2023-04-09T16:04:27.626Z,20.40
2023-04-09T16:06:56.235Z,20.40
2023-04-09T16:09:23.637Z,20.40
2023-04-09T16:11:51.090Z,20.40
2023-04-09T16:14:17.889Z,20.30
2023-04-09T16:16:49.430Z,20.40
2023-04-09T16:19:17.775Z,20.40
2023-04-09T16:21:45.493Z,20.30
2023-04-09T16:24:12.793Z,20.30
2023-04-09T16:26:41.076Z,20.30
2023-04-09T16:29:08.076Z,20.30
2023-04-09T16:31:36.355Z,20.30
2023-04-09T16:34:03.496Z,20.40
2023-04-09T16:36:31.528Z,20.40
2023-04-09T16:38:58.238Z,20.40
2023-04-09T16:41:25.314Z,20.40
2023-04-09T16:43:52.088Z,20.40
2023-04-09T16:46:18.756Z,20.40
2023-04-09T16:48:45.609Z,20.30
2023-04-09T16:51:12.481Z,20.40
2023-04-09T16:53:40.119Z,20.30
2023-04-09T16:56:07.854Z,20.30
2023-04-09T16:58:34.611Z,20.30
2023-04-09T17:01:02.130Z,20.30
2023-04-09T17:03:29.040Z,20.30
2023-04-09T17:05:57.171Z,20.30
2023-04-09T17:08:24.502Z,20.30
2023-04-09T17:10:52.093Z,20.30
2023-04-09T17:13:18.760Z,20.30
2023-04-09T17:15:45.440Z,20.30
2023-04-09T17:18:12.297Z,20.30
2023-04-09T17:20:39.098Z,20.30
2023-04-09T17:23:05.838Z,20.30
2023-04-09T17:25:32.535Z,20.30
2023-04-09T17:28:01.507Z,20.30
2023-04-09T17:30:28.261Z,20.30
2023-04-09T17:32:54.967Z,20.30
2023-04-09T17:35:21.786Z,20.30
2023-04-09T17:37:48.506Z,20.30
2023-04-09T17:40:16.823Z,20.30
2023-04-09T17:42:44.999Z,20.20
2023-04-09T17:45:12.072Z,20.20
2023-04-09T17:47:42.042Z,20.20
2023-04-09T17:50:09.158Z,20.20
2023-04-09T17:52:39.223Z,20.20
2023-04-09T17:55:11.708Z,20.10
2023-04-09T17:57:42.787Z,20.10
2023-04-09T18:00:10.997Z,20.10
2023-04-09T18:02:37.950Z,20.10
2023-04-09T18:05:05.323Z,20.00
2023-04-09T18:07:34.079Z,20.00
2023-04-09T18:10:04.892Z,20.00
2023-04-09T18:12:32.492Z,20.00
2023-04-09T18:14:59.247Z,20.00
2023-04-09T18:17:26.406Z,20.00
2023-04-09T18:19:58.402Z,19.90
2023-04-09T18:22:26.905Z,19.90
2023-04-09T18:24:54.227Z,19.90
2023-04-09T18:27:21.604Z,19.90
2023-04-09T18:29:51.177Z,19.80
2023-04-09T18:32:19.612Z,19.80
2023-04-09T18:34:47.594Z,19.80
2023-04-09T18:37:15.369Z,19.70
2023-04-09T18:39:42.091Z,19.70
2023-04-09T18:42:08.943Z,19.70
2023-04-09T18:44:37.471Z,19.70
2023-04-09T18:47:05.623Z,19.70
2023-04-09T18:49:33.186Z,19.60
2023-04-09T18:52:01.893Z,19.60
2023-04-09T18:54:28.864Z,19.60
2023-04-09T18:56:57.456Z,19.50
2023-04-09T18:59:24.202Z,19.50
2023-04-09T19:01:51.018Z,19.50
2023-04-09T19:04:17.735Z,19.40
2023-04-09T19:06:46.499Z,19.40
2023-04-09T19:09:13.286Z,19.40
2023-04-09T19:11:40.162Z,19.40
2023-04-09T19:14:06.798Z,19.30
2023-04-09T19:16:33.506Z,19.30
2023-04-09T19:19:00.239Z,19.30
2023-04-09T19:21:28.852Z,19.20
2023-04-09T19:23:55.854Z,19.20
2023-04-09T19:26:23.138Z,19.20
2023-04-09T19:28:49.884Z,19.20
2023-04-09T19:31:17.068Z,19.10
2023-04-09T19:33:43.983Z,19.10
2023-04-09T19:36:10.779Z,19.00
2023-04-09T19:38:37.506Z,19.00
2023-04-09T19:41:04.416Z,19.00
2023-04-09T19:43:31.306Z,19.00
2023-04-09T19:45:58.043Z,18.90
2023-04-09T19:48:25.049Z,18.90
2023-04-09T19:50:52.566Z,18.80
2023-04-09T20:00:40.782Z,18.80
2023-04-09T20:35:13.532Z,18.70
2023-04-09T20:37:40.290Z,18.10
2023-04-09T20:47:30.385Z,18.20
2023-04-09T20:49:59.845Z,18.10
2023-04-09T20:52:30.550Z,18.10
2023-04-09T20:54:57.543Z,18.10
2023-04-09T20:57:24.570Z,18.10
2023-04-09T20:59:52.898Z,18.00
2023-04-09T21:02:20.359Z,18.00
2023-04-09T21:04:49.248Z,18.00
2023-04-09T21:07:16.161Z,18.00
2023-04-09T21:09:42.804Z,17.90
2023-04-09T21:12:09.556Z,17.90
2023-04-09T21:14:36.230Z,17.90
2023-04-09T21:17:02.942Z,17.90
2023-04-09T21:19:29.659Z,17.90
2023-04-09T21:21:56.459Z,17.80
2023-04-09T21:24:23.201Z,17.80
2023-04-09T21:26:51.720Z,17.80
2023-04-09T21:29:21.245Z,17.80
2023-04-09T21:31:49.007Z,17.80
2023-04-09T21:34:16.058Z,17.70
2023-04-09T21:36:44.985Z,17.70
2023-04-09T21:39:12.170Z,17.70
2023-04-09T21:41:39.305Z,17.70
2023-04-09T21:44:08.296Z,17.60
2023-04-09T21:46:37.081Z,17.60
2023-04-09T21:49:04.102Z,17.60
2023-04-09T21:51:31.556Z,17.60
2023-04-09T21:54:05.268Z,17.60
2023-04-09T21:56:35.653Z,17.60
2023-04-09T21:59:02.959Z,17.50
2023-04-09T22:01:31.280Z,17.50
2023-04-09T22:03:59.542Z,17.50
2023-04-09T22:06:27.336Z,17.50
2023-04-09T22:08:56.882Z,17.50
2023-04-09T22:11:28.290Z,17.40
2023-04-09T22:13:56.710Z,17.40
2023-04-09T22:16:24.124Z,17.40
2023-04-09T23:13:03.783Z,17.40
2023-04-09T23:15:30.777Z,17.20
2023-04-09T23:17:57.594Z,17.10
2023-04-09T23:20:26.586Z,17.10
2023-04-09T23:22:53.322Z,17.10
2023-04-09T23:25:21.871Z,17.10
2023-04-09T23:27:48.557Z,17.10
2023-04-09T23:30:16.995Z,17.10
2023-04-09T23:32:44.799Z,17.10
2023-04-09T23:35:11.856Z,17.10
2023-04-09T23:37:39.900Z,17.10
2023-04-09T23:40:08.670Z,17.00
2023-04-09T23:42:35.627Z,17.00
2023-04-09T23:45:04.322Z,17.00
2023-04-09T23:47:34.716Z,17.00
2023-04-09T23:50:05.722Z,17.00
2023-04-09T23:52:35.135Z,17.00
2023-04-09T23:55:03.359Z,16.90
2023-04-09T23:57:30.286Z,16.90
2023-04-09T23:59:57.218Z,17.00
